createdAt,value
2022-11-08T00:06:50.181Z,99831.20
2022-11-08T00:16:53.714Z,99833.66
2022-11-08T00:26:56.899Z,99830.52
2022-11-08T00:37:00.395Z,99829.81
2022-11-08T00:47:04.627Z,99831.17
2022-11-08T00:57:07.839Z,99837.46
2022-11-08T01:07:11.104Z,99839.25
2022-11-08T01:17:14.374Z,99831.36
2022-11-08T01:27:17.564Z,99831.64
2022-11-08T01:37:20.922Z,99824.40
2022-11-08T01:47:24.074Z,99826.17
2022-11-08T01:57:40.365Z,99827.22
2022-11-08T02:07:43.574Z,99822.08
2022-11-08T02:17:46.764Z,99816.91
2022-11-08T02:27:49.925Z,99811.02
2022-11-08T02:37:53.793Z,99799.38
2022-11-08T02:47:56.943Z,99800.60
2022-11-08T02:58:00.736Z,99788.13
2022-11-08T03:08:04.393Z,99789.23
2022-11-08T03:18:07.638Z,99798.34
2022-11-08T03:28:10.870Z,99799.52
2022-11-08T03:38:14.916Z,99811.11
2022-11-08T03:48:19.261Z,99809.34
2022-11-08T03:58:22.696Z,99820.13
2022-11-08T04:08:25.845Z,99829.04
2022-11-08T04:18:47.786Z,99825.45
2022-11-08T04:28:51.041Z,99827.45
2022-11-08T04:38:54.675Z,99819.30
2022-11-08T04:49:00.638Z,99812.56
2022-11-08T04:59:06.227Z,99814.27
2022-11-08T05:09:12.845Z,99820.11
2022-11-08T05:19:36.031Z,99818.21
2022-11-08T05:29:42.198Z,99825.85
2022-11-08T05:39:45.691Z,99824.39
2022-11-08T05:49:48.895Z,99834.32
2022-11-08T05:59:52.326Z,99846.92
2022-11-08T06:10:25.879Z,99855.09
2022-11-08T06:20:29.351Z,99870.13
2022-11-08T06:30:32.568Z,99862.92
2022-11-08T06:40:37.961Z,99860.36
2022-11-08T06:50:42.645Z,99859.67
2022-11-08T07:00:45.854Z,99873.73
2022-11-08T07:10:49.059Z,99877.84
2022-11-08T07:20:53.000Z,99881.35
2022-11-08T07:31:02.215Z,99885.27
2022-11-08T07:41:05.531Z,99884.34
2022-11-08T07:51:08.766Z,99884.46
2022-11-08T08:01:13.626Z,99891.41
2022-11-08T08:11:16.932Z,99886.20
2022-11-08T08:21:20.149Z,99880.10
2022-11-08T08:31:23.396Z,99884.85
2022-11-08T08:41:26.625Z,99890.80
2022-11-08T08:51:29.909Z,99883.24
2022-11-08T09:01:40.385Z,99880.45
2022-11-08T09:11:43.771Z,99874.77
2022-11-08T09:21:46.999Z,99868.45
2022-11-08T09:31:50.243Z,99879.73
2022-11-08T09:42:11.132Z,99884.45
2022-11-08T09:52:23.857Z,99877.27
2022-11-08T10:02:28.139Z,99870.18
2022-11-08T10:12:49.882Z,99868.59
2022-11-08T10:22:53.013Z,99865.88
2022-11-08T10:32:57.662Z,99864.58
2022-11-08T10:43:10.243Z,99867.10
2022-11-08T10:53:35.166Z,99860.73
2022-11-08T11:03:38.359Z,99853.98
2022-11-08T11:13:41.521Z,99853.67
2022-11-08T11:23:47.671Z,99842.09
2022-11-08T11:33:50.868Z,99837.05
2022-11-08T11:44:07.394Z,99839.78
2022-11-08T11:54:15.566Z,99835.11
2022-11-08T12:04:27.877Z,99827.14
2022-11-08T12:15:00.800Z,99827.77
2022-11-08T12:25:07.080Z,99818.27
2022-11-08T12:35:35.929Z,99819.29
2022-11-08T12:45:39.693Z,99814.73
2022-11-08T12:55:47.564Z,99811.75
2022-11-08T13:06:09.019Z,99818.95
2022-11-08T13:16:12.348Z,99822.20
2022-11-08T13:26:24.464Z,99821.11
2022-11-08T13:36:43.411Z,99830.25
2022-11-08T13:46:48.415Z,99825.65
2022-11-08T13:56:57.004Z,99836.45
2022-11-08T14:07:03.970Z,99840.40
2022-11-08T14:17:12.832Z,99838.60
2022-11-08T14:27:34.093Z,99834.25
2022-11-08T14:37:37.799Z,99834.13
2022-11-08T14:47:42.528Z,99838.64
2022-11-08T14:57:46.924Z,99842.14
2022-11-08T15:07:50.270Z,99842.02
2022-11-08T15:18:12.759Z,99846.39
2022-11-08T15:28:21.811Z,99847.23
2022-11-08T15:38:39.563Z,99848.95
2022-11-08T15:48:42.820Z,99840.23
2022-11-08T15:58:46.246Z,99842.97
2022-11-08T16:08:49.715Z,99841.62
2022-11-08T16:18:53.126Z,99843.39
2022-11-08T16:28:56.304Z,99854.21
2022-11-08T16:39:02.998Z,99858.64
2022-11-08T16:49:07.624Z,99866.48
2022-11-08T16:59:10.861Z,99872.98
2022-11-08T17:09:14.098Z,99872.90
2022-11-08T17:19:17.256Z,99875.83
2022-11-08T17:29:20.846Z,99888.73
2022-11-08T17:39:24.154Z,99879.98
2022-11-08T17:49:27.311Z,99883.42
2022-11-08T17:59:30.661Z,99884.55
2022-11-08T18:09:34.179Z,99885.06
2022-11-08T18:19:37.544Z,99869.52
2022-11-08T18:29:40.811Z,99864.39
2022-11-08T18:39:44.053Z,99870.16
2022-11-08T18:49:47.193Z,99863.11
2022-11-08T18:59:50.473Z,99864.27
2022-11-08T19:09:53.842Z,99853.47
2022-11-08T19:19:57.110Z,99858.79
2022-11-08T19:30:00.645Z,99858.88
2022-11-08T19:40:05.240Z,99863.95
2022-11-08T19:50:08.649Z,99866.53
2022-11-08T20:00:13.814Z,99866.72
2022-11-08T20:10:18.376Z,99866.05
2022-11-08T20:20:21.833Z,99872.21
2022-11-08T20:30:25.134Z,99871.84
2022-11-08T20:40:28.328Z,99867.69
2022-11-08T20:50:31.648Z,99862.54
2022-11-08T21:00:57.864Z,99855.48
2022-11-08T21:10:59.916Z,99855.04
2022-11-08T21:21:12.235Z,99854.73
2022-11-08T21:31:15.909Z,99851.87
2022-11-08T21:41:19.166Z,99850.98
2022-11-08T21:51:23.441Z,99856.46
2022-11-08T22:01:30.652Z,99859.04
2022-11-08T22:11:35.858Z,99853.06
2022-11-08T22:21:39.574Z,99841.38
2022-11-08T22:31:44.243Z,99827.09
2022-11-08T22:41:53.220Z,99823.57
2022-11-08T22:51:56.428Z,99819.23
2022-11-08T23:02:01.275Z,99820.27
2022-11-08T23:12:24.917Z,99811.60
2022-11-08T23:22:46.652Z,99803.73
2022-11-08T23:32:51.082Z,99808.95
2022-11-08T23:43:32.059Z,99803.32
2022-11-08T23:53:37.471Z,99803.04
